createdAt,value
2018-10-19T00:00:04.126Z,29.87
2018-10-19T00:02:33.676Z,26.10
2018-10-19T00:05:03.275Z,25.50
2018-10-19T00:07:32.771Z,26.67
2018-10-19T00:10:02.285Z,29.93
2018-10-19T00:12:31.942Z,26.27
2018-10-19T00:15:01.569Z,29.83
2018-10-19T00:17:31.104Z,29.97
2018-10-19T00:20:00.646Z,25.53
2018-10-19T00:22:30.159Z,25.57
2018-10-19T00:24:59.695Z,24.23
2018-10-19T00:27:29.199Z,26.57
2018-10-19T00:29:58.742Z,24.63
2018-10-19T00:32:28.275Z,25.43
2018-10-19T00:34:57.860Z,25.93
2018-10-19T00:37:27.361Z,27.77
2018-10-19T00:39:56.888Z,25.30
2018-10-19T00:42:26.418Z,26.40
2018-10-19T00:44:55.996Z,23.57
2018-10-19T00:47:25.515Z,24.93
2018-10-19T00:49:55.039Z,26.10
2018-10-19T00:52:24.785Z,26.53
2018-10-19T00:54:54.418Z,24.07
2018-10-19T00:57:23.998Z,23.50
2018-10-19T00:59:53.577Z,23.67
2018-10-19T01:02:23.306Z,25.10
2018-10-19T01:04:52.912Z,23.23
2018-10-19T01:07:22.443Z,25.30
2018-10-19T01:09:51.934Z,25.20
2018-10-19T01:12:21.494Z,26.27
2018-10-19T01:14:51.015Z,27.50
2018-10-19T01:17:20.574Z,26.27
2018-10-19T01:19:50.061Z,27.07
2018-10-19T01:22:19.685Z,27.80
2018-10-19T01:24:49.290Z,27.97
2018-10-19T01:27:18.878Z,29.40
2018-10-19T01:29:48.390Z,28.40
2018-10-19T01:32:17.919Z,28.13
2018-10-19T01:34:47.475Z,28.40
2018-10-19T01:37:16.979Z,28.57
2018-10-19T01:39:46.529Z,30.50
2018-10-19T01:42:16.065Z,30.03
2018-10-19T01:44:45.604Z,27.27
2018-10-19T01:47:15.186Z,28.20
2018-10-19T01:49:44.655Z,26.37
2018-10-19T01:52:14.232Z,28.83
2018-10-19T01:54:43.770Z,30.47
2018-10-19T01:57:13.500Z,28.50
2018-10-19T01:59:42.915Z,27.73
2018-10-19T02:02:12.450Z,29.43
2018-10-19T02:04:41.966Z,28.70
2018-10-19T02:07:11.580Z,26.90
2018-10-19T02:09:41.088Z,32.17
2018-10-19T02:12:10.697Z,27.67
2018-10-19T02:14:40.367Z,27.70
2018-10-19T02:17:09.967Z,28.97
2018-10-19T02:19:39.474Z,29.83
2018-10-19T02:22:09.227Z,31.17
2018-10-19T02:24:38.804Z,34.27
2018-10-19T02:27:08.795Z,36.13
2018-10-19T02:29:38.382Z,32.43
2018-10-19T02:32:07.990Z,31.87
2018-10-19T02:34:37.697Z,32.10
2018-10-19T02:37:07.726Z,31.13
2018-10-19T02:39:37.270Z,33.57
2018-10-19T02:42:06.867Z,35.20
2018-10-19T02:44:36.362Z,32.03
2018-10-19T02:47:06.349Z,31.03
2018-10-19T02:49:35.859Z,35.97
2018-10-19T02:52:05.774Z,32.63
2018-10-19T02:54:35.294Z,32.33
2018-10-19T02:57:04.871Z,38.17
2018-10-19T02:59:34.387Z,30.30
2018-10-19T03:02:03.898Z,35.50
2018-10-19T03:04:33.475Z,31.30
2018-10-19T03:07:03.027Z,28.63
2018-10-19T03:09:32.615Z,51.73
2018-10-19T03:12:02.118Z,47.67
2018-10-19T03:14:31.654Z,40.00
2018-10-19T03:17:01.217Z,34.40
2018-10-19T03:19:30.719Z,39.77
2018-10-19T03:22:00.250Z,37.77
2018-10-19T03:24:29.839Z,32.53
2018-10-19T03:26:59.411Z,32.63
2018-10-19T03:29:28.903Z,32.17
2018-10-19T03:31:58.440Z,31.77
2018-10-19T03:34:27.959Z,29.53
2018-10-19T03:36:57.516Z,28.63
2018-10-19T03:39:27.089Z,36.70
2018-10-19T03:41:56.587Z,32.37
2018-10-19T03:44:26.139Z,29.10
2018-10-19T03:46:55.691Z,44.30
2018-10-19T03:49:25.242Z,36.20
2018-10-19T03:51:54.756Z,33.23
2018-10-19T03:54:24.279Z,38.50
2018-10-19T03:56:53.804Z,43.17
2018-10-19T03:59:23.355Z,42.20
2018-10-19T04:01:52.848Z,28.00
2018-10-19T04:04:22.380Z,32.53
2018-10-19T04:06:51.883Z,27.77
2018-10-19T04:09:21.420Z,34.83
2018-10-19T04:11:50.945Z,29.47
2018-10-19T04:14:20.484Z,30.67
2018-10-19T04:16:50.023Z,33.50
2018-10-19T04:19:19.510Z,32.80
2018-10-19T04:21:49.191Z,33.07
2018-10-19T04:24:18.708Z,35.23
2018-10-19T04:26:48.289Z,37.23
2018-10-19T04:29:17.857Z,33.50
2018-10-19T04:31:47.338Z,42.77
2018-10-19T04:34:16.886Z,35.80
2018-10-19T04:36:46.458Z,35.27
2018-10-19T04:39:16.051Z,32.97
2018-10-19T04:41:46.289Z,39.70
2018-10-19T04:44:15.715Z,40.13
2018-10-19T04:46:45.767Z,44.17
2018-10-19T04:49:15.314Z,34.30
2018-10-19T04:51:44.880Z,36.37
2018-10-19T04:54:14.379Z,30.53
2018-10-19T04:56:43.934Z,42.40
2018-10-19T04:59:13.537Z,33.30
2018-10-19T05:01:43.274Z,37.13
2018-10-19T05:04:12.847Z,34.07
2018-10-19T05:06:42.565Z,30.83
2018-10-19T05:09:13.001Z,37.70
2018-10-19T05:11:42.624Z,42.03
2018-10-19T05:14:12.202Z,43.83
2018-10-19T05:16:41.772Z,41.13
2018-10-19T05:19:11.279Z,42.93
2018-10-19T05:21:41.040Z,44.10
2018-10-19T05:24:10.539Z,43.90
2018-10-19T05:26:40.099Z,43.67
2018-10-19T05:29:09.722Z,54.87
2018-10-19T05:31:39.270Z,40.87
2018-10-19T05:34:08.812Z,41.93
2018-10-19T05:36:38.436Z,38.50
2018-10-19T05:39:09.159Z,37.30
2018-10-19T05:41:38.753Z,41.50
2018-10-19T05:44:08.391Z,44.97
2018-10-19T05:46:37.944Z,37.20
2018-10-19T05:49:07.497Z,36.90
2018-10-19T05:51:37.053Z,44.03
2018-10-19T05:54:06.755Z,39.43
2018-10-19T05:56:36.324Z,35.17
2018-10-19T05:59:06.064Z,42.60
2018-10-19T06:01:35.570Z,36.37
2018-10-19T06:04:05.442Z,37.23
2018-10-19T06:06:34.991Z,41.60
2018-10-19T06:09:05.685Z,39.27
2018-10-19T06:11:35.223Z,37.27
2018-10-19T06:14:04.846Z,41.40
2018-10-19T06:16:34.335Z,37.47
2018-10-19T06:19:03.895Z,40.90
2018-10-19T06:21:33.533Z,66.20
2018-10-19T06:24:03.133Z,35.53
2018-10-19T06:26:32.663Z,32.83
2018-10-19T06:29:02.254Z,49.50
2018-10-19T06:31:31.835Z,55.93
2018-10-19T06:34:01.431Z,93.43
2018-10-19T06:36:30.974Z,47.90
2018-10-19T06:39:00.770Z,45.57
2018-10-19T06:41:30.319Z,39.77
2018-10-19T06:43:59.893Z,37.93
2018-10-19T06:46:29.489Z,28.57
2018-10-19T06:48:59.103Z,34.30
2018-10-19T06:51:28.567Z,30.47
2018-10-19T06:53:58.107Z,30.10
2018-10-19T06:56:27.850Z,36.60
2018-10-19T06:58:57.552Z,35.10
2018-10-19T07:01:27.070Z,40.80
2018-10-19T07:03:56.644Z,24.13
2018-10-19T07:06:26.171Z,34.37
2018-10-19T07:08:55.751Z,30.93
2018-10-19T07:11:25.254Z,29.90
2018-10-19T07:13:54.888Z,29.90
2018-10-19T07:16:24.487Z,27.27
2018-10-19T07:18:54.048Z,32.33
2018-10-19T07:21:23.582Z,28.63
2018-10-19T07:23:53.363Z,25.37
2018-10-19T07:26:23.164Z,28.47
2018-10-19T07:28:52.754Z,29.50
2018-10-19T07:31:22.359Z,24.47
2018-10-19T07:33:52.505Z,27.43
2018-10-19T07:36:22.086Z,28.13
2018-10-19T07:38:51.746Z,24.23
2018-10-19T07:41:21.439Z,35.33
2018-10-19T07:43:50.967Z,29.53
2018-10-19T07:46:20.599Z,34.07
2018-10-19T07:48:50.307Z,30.03
2018-10-19T07:51:19.845Z,39.87
2018-10-19T07:53:49.383Z,30.20
2018-10-19T07:56:18.911Z,26.93
2018-10-19T07:58:48.444Z,35.47
2018-10-19T08:01:18.044Z,27.47
2018-10-19T08:03:47.638Z,24.13
2018-10-19T08:06:17.175Z,34.37
2018-10-19T08:08:46.733Z,30.97
2018-10-19T08:11:16.436Z,20.40
2018-10-19T08:13:45.940Z,27.67
2018-10-19T08:16:16.419Z,27.87
2018-10-19T08:18:45.999Z,22.63
2018-10-19T08:21:15.610Z,18.77
2018-10-19T08:23:45.456Z,24.67
2018-10-19T08:26:15.090Z,35.90
2018-10-19T08:28:44.644Z,23.07
2018-10-19T08:31:14.200Z,19.03
2018-10-19T08:33:43.739Z,24.80
2018-10-19T08:36:13.299Z,25.87
2018-10-19T08:38:43.059Z,23.47
2018-10-19T08:41:12.840Z,24.77
2018-10-19T08:43:42.298Z,29.63
2018-10-19T08:46:16.870Z,32.33
2018-10-19T08:48:46.416Z,36.60
2018-10-19T08:51:16.015Z,28.73
2018-10-19T08:53:45.674Z,24.13
2018-10-19T08:56:15.270Z,20.60
2018-10-19T08:58:44.770Z,30.30
2018-10-19T09:01:14.344Z,27.47
2018-10-19T09:03:43.886Z,21.00
2018-10-19T09:06:13.545Z,20.67
2018-10-19T09:08:42.999Z,44.70
2018-10-19T09:11:12.751Z,51.53
2018-10-19T09:13:42.311Z,32.53
2018-10-19T09:16:13.049Z,26.30
2018-10-19T09:18:42.738Z,25.07
2018-10-19T09:21:18.684Z,27.67
2018-10-19T09:23:48.315Z,20.57
2018-10-19T09:26:17.871Z,30.00
2018-10-19T09:28:47.411Z,26.60
2018-10-19T09:31:17.070Z,22.43
2018-10-19T09:33:46.588Z,18.40
2018-10-19T09:36:16.527Z,20.80
2018-10-19T09:38:45.883Z,17.40
2018-10-19T09:41:15.530Z,26.43
2018-10-19T09:43:45.079Z,20.90
2018-10-19T09:46:14.670Z,21.37
2018-10-19T09:48:44.223Z,27.50
2018-10-19T09:51:14.156Z,25.70
2018-10-19T09:53:43.629Z,19.10
2018-10-19T09:56:13.207Z,18.13
2018-10-19T09:58:42.695Z,19.73
2018-10-19T10:01:17.450Z,22.13
2018-10-19T10:03:47.006Z,27.70
2018-10-19T10:06:16.534Z,25.30
2018-10-19T10:08:46.099Z,17.90
2018-10-19T10:11:15.607Z,20.57
2018-10-19T10:13:45.140Z,19.07
2018-10-19T10:16:14.702Z,25.83
2018-10-19T10:18:44.255Z,18.23
2018-10-19T10:21:13.759Z,21.13
2018-10-19T10:23:43.714Z,19.33
2018-10-19T10:26:13.832Z,22.33
2018-10-19T10:28:43.553Z,21.40
2018-10-19T10:31:13.258Z,24.90
2018-10-19T10:33:42.655Z,25.40
2018-10-19T10:36:12.212Z,19.83
2018-10-19T10:38:41.771Z,20.23
2018-10-19T10:41:11.391Z,24.27
2018-10-19T10:43:41.041Z,20.40
2018-10-19T10:46:10.742Z,20.67
2018-10-19T10:48:40.280Z,20.80
2018-10-19T10:51:09.886Z,16.97
2018-10-19T10:53:39.487Z,27.83
2018-10-19T10:56:09.024Z,23.07
2018-10-19T10:58:38.611Z,20.40
2018-10-19T11:01:08.148Z,29.07
2018-10-19T11:03:37.736Z,23.40
2018-10-19T11:06:07.363Z,24.67
2018-10-19T11:08:36.889Z,18.40
2018-10-19T11:11:10.013Z,19.00
2018-10-19T11:13:40.545Z,21.30
2018-10-19T11:16:11.152Z,18.30
2018-10-19T11:18:40.935Z,23.13
2018-10-19T11:21:10.647Z,21.43
2018-10-19T11:23:40.195Z,18.07
2018-10-19T11:26:09.723Z,28.07
2018-10-19T11:28:39.251Z,23.97
2018-10-19T11:31:08.794Z,27.07
2018-10-19T11:33:38.373Z,26.23
2018-10-19T11:36:07.998Z,24.90
2018-10-19T11:38:37.523Z,23.03
2018-10-19T11:41:07.129Z,19.47
2018-10-19T11:43:36.690Z,21.00
2018-10-19T11:46:06.716Z,20.47
2018-10-19T11:48:36.252Z,21.90
2018-10-19T11:51:05.915Z,26.10
2018-10-19T11:53:35.410Z,20.87
2018-10-19T11:56:05.308Z,21.40
2018-10-19T11:58:34.945Z,28.37
2018-10-19T12:01:04.582Z,21.10
2018-10-19T12:03:34.221Z,22.37
2018-10-19T12:06:03.736Z,21.77
2018-10-19T12:08:33.277Z,24.27
2018-10-19T12:11:02.795Z,21.93
2018-10-19T12:13:32.423Z,20.80
2018-10-19T12:16:02.044Z,22.60
2018-10-19T12:18:31.558Z,18.97
2018-10-19T12:21:01.198Z,24.07
2018-10-19T12:23:30.663Z,33.80
2018-10-19T12:26:00.272Z,20.43
2018-10-19T12:28:29.754Z,18.53
2018-10-19T12:30:59.420Z,18.67
2018-10-19T12:33:28.917Z,23.70
2018-10-19T12:35:58.563Z,21.27
2018-10-19T12:38:28.085Z,24.07
2018-10-19T12:40:57.732Z,23.67
2018-10-19T12:43:27.273Z,22.47
2018-10-19T12:46:48.804Z,25.60
2018-10-19T12:49:20.541Z,22.30
2018-10-19T12:51:50.172Z,26.27
2018-10-19T12:54:19.753Z,17.83
2018-10-19T12:56:49.321Z,23.23
2018-10-19T12:59:18.907Z,23.33
2018-10-19T13:01:48.499Z,19.20
2018-10-19T13:04:18.047Z,21.03
2018-10-19T13:06:47.635Z,18.80
2018-10-19T13:09:17.213Z,21.50
2018-10-19T13:11:46.762Z,19.97
2018-10-19T13:14:16.378Z,23.60
2018-10-19T13:16:45.932Z,24.23
2018-10-19T13:19:15.526Z,25.77
2018-10-19T13:21:45.163Z,25.30
2018-10-19T13:24:14.850Z,23.10
2018-10-19T13:26:44.283Z,20.50
2018-10-19T13:29:13.846Z,22.20
2018-10-19T13:31:43.369Z,24.73
2018-10-19T13:34:13.011Z,28.70
2018-10-19T13:36:42.600Z,21.03
2018-10-19T13:39:13.449Z,18.73
2018-10-19T13:41:43.254Z,25.80
2018-10-19T13:44:13.164Z,24.97
2018-10-19T13:46:42.724Z,24.20
2018-10-19T13:49:12.277Z,20.17
2018-10-19T13:51:41.834Z,23.90
2018-10-19T13:54:11.354Z,19.73
2018-10-19T13:56:40.953Z,18.97
2018-10-19T13:59:10.541Z,21.83
2018-10-19T14:01:40.094Z,22.33
2018-10-19T14:04:09.602Z,17.20
2018-10-19T14:06:39.225Z,27.03
2018-10-19T14:09:10.213Z,19.63
2018-10-19T14:11:40.319Z,26.97
2018-10-19T14:14:09.938Z,25.70
2018-10-19T14:16:39.496Z,19.27
2018-10-19T14:19:09.092Z,20.80
2018-10-19T14:21:38.596Z,24.70
2018-10-19T14:24:08.139Z,21.47
2018-10-19T14:26:37.700Z,20.87
2018-10-19T14:29:07.351Z,25.23
2018-10-19T14:31:36.923Z,22.90
2018-10-19T14:34:06.491Z,27.27
2018-10-19T14:36:36.028Z,18.83
2018-10-19T14:39:06.459Z,20.53
2018-10-19T14:41:35.970Z,20.97
2018-10-19T14:44:05.600Z,22.30
2018-10-19T14:46:35.218Z,23.53
2018-10-19T14:49:04.844Z,21.93
2018-10-19T14:51:34.409Z,31.43
2018-10-19T14:54:03.987Z,20.33
2018-10-19T14:56:33.559Z,25.53
2018-10-19T14:59:03.126Z,23.57
2018-10-19T15:01:32.675Z,21.10
2018-10-19T15:04:02.188Z,23.73
2018-10-19T15:06:31.730Z,23.47
2018-10-19T15:09:01.485Z,25.90
2018-10-19T15:11:31.191Z,30.87
2018-10-19T15:14:00.603Z,22.67
2018-10-19T15:16:30.199Z,24.97
2018-10-19T15:19:00.158Z,28.03
2018-10-19T15:21:29.838Z,44.23
2018-10-19T15:23:59.590Z,39.97
2018-10-19T15:26:29.137Z,31.40
2018-10-19T15:28:58.735Z,33.37
2018-10-19T15:31:28.251Z,28.07
2018-10-19T15:33:57.803Z,31.07
2018-10-19T15:36:27.351Z,32.83
2018-10-19T15:38:56.909Z,28.83
2018-10-19T15:41:26.445Z,32.70
2018-10-19T15:43:55.974Z,30.10
2018-10-19T15:46:25.613Z,22.13
2018-10-19T15:48:55.101Z,29.87
2018-10-19T15:51:24.639Z,26.07
2018-10-19T15:53:54.232Z,22.90
2018-10-19T15:56:23.730Z,25.47
2018-10-19T15:58:53.300Z,23.80
2018-10-19T16:01:22.796Z,26.90
2018-10-19T16:03:52.519Z,25.53
2018-10-19T16:06:22.054Z,28.30
2018-10-19T16:08:51.588Z,32.80
2018-10-19T16:11:21.201Z,27.10
2018-10-19T16:13:50.690Z,32.37
2018-10-19T16:16:20.218Z,26.07
2018-10-19T16:18:49.718Z,25.87
2018-10-19T16:21:19.299Z,24.13
2018-10-19T16:23:48.842Z,31.33
2018-10-19T16:26:18.384Z,30.80
2018-10-19T16:28:47.887Z,31.60
2018-10-19T16:31:17.486Z,35.60
2018-10-19T16:33:47.135Z,29.30
2018-10-19T16:36:16.691Z,32.07
2018-10-19T16:38:46.167Z,28.93
2018-10-19T16:41:15.799Z,27.77
2018-10-19T16:43:45.323Z,27.73
2018-10-19T16:46:14.899Z,30.77
2018-10-19T16:48:44.655Z,33.27
2018-10-19T16:51:14.206Z,28.33
2018-10-19T16:53:43.786Z,30.47
2018-10-19T16:56:13.254Z,29.30
2018-10-19T16:58:42.785Z,31.00
2018-10-19T17:01:12.307Z,29.93
2018-10-19T17:03:41.838Z,35.80
2018-10-19T17:06:11.381Z,44.40
2018-10-19T17:08:40.952Z,39.83
2018-10-19T17:11:10.502Z,49.47
2018-10-19T17:13:40.089Z,47.63
2018-10-19T17:16:09.591Z,46.83
2018-10-19T17:18:39.123Z,43.07
2018-10-19T17:21:08.680Z,37.43
2018-10-19T17:23:38.193Z,48.13
2018-10-19T17:26:08.149Z,42.17
2018-10-19T17:28:37.718Z,60.50
2018-10-19T17:31:07.320Z,58.57
2018-10-19T17:33:36.873Z,48.03
2018-10-19T17:36:06.441Z,48.37
2018-10-19T17:38:35.934Z,36.70
2018-10-19T17:41:05.933Z,38.50
2018-10-19T17:43:35.462Z,36.23
2018-10-19T17:46:04.999Z,36.87
2018-10-19T17:48:34.574Z,90.53
2018-10-19T17:51:04.250Z,44.13
2018-10-19T17:53:33.754Z,42.53
2018-10-19T17:56:03.279Z,43.10
2018-10-19T17:58:32.811Z,31.17
2018-10-19T18:01:02.402Z,32.43
2018-10-19T18:03:32.059Z,27.23
2018-10-19T18:06:01.630Z,30.17
2018-10-19T18:08:31.247Z,30.00
2018-10-19T18:11:00.779Z,37.87
2018-10-19T18:13:30.310Z,37.47
2018-10-19T18:15:59.811Z,50.83
2018-10-19T18:18:29.375Z,49.10
2018-10-19T18:20:58.952Z,31.23
2018-10-19T18:23:28.506Z,33.93
2018-10-19T18:25:58.015Z,32.30
2018-10-19T18:28:27.538Z,36.23
2018-10-19T18:30:57.071Z,31.43
2018-10-19T18:33:26.547Z,37.07
2018-10-19T18:35:56.063Z,37.07
2018-10-19T18:38:25.535Z,39.10
2018-10-19T18:40:55.108Z,32.97
2018-10-19T18:43:24.618Z,42.10
2018-10-19T18:45:54.166Z,39.37
2018-10-19T18:48:23.687Z,41.17
2018-10-19T18:50:53.298Z,40.77
2018-10-19T18:53:22.791Z,40.53
2018-10-19T18:55:52.501Z,39.67
2018-10-19T18:58:21.931Z,41.23
2018-10-19T19:00:51.499Z,40.00
2018-10-19T19:03:21.029Z,37.50
2018-10-19T19:05:50.607Z,43.20
2018-10-19T19:08:20.099Z,42.50
2018-10-19T19:10:49.674Z,46.03
2018-10-19T19:13:24.384Z,42.47
2018-10-19T19:15:53.914Z,45.57
2018-10-19T19:18:23.458Z,38.83
2018-10-19T19:20:52.983Z,45.43
2018-10-19T19:23:22.531Z,49.00
2018-10-19T19:25:57.183Z,43.80
2018-10-19T19:28:26.690Z,40.00
2018-10-19T19:30:56.271Z,48.57
2018-10-19T19:33:30.777Z,39.10
2018-10-19T19:36:00.319Z,42.93
2018-10-19T19:38:29.842Z,37.17
2018-10-19T19:43:10.254Z,38.87
2018-10-19T19:45:39.819Z,35.30
2018-10-19T19:48:14.339Z,36.47
2018-10-19T19:50:43.888Z,41.87
2018-10-19T19:53:13.558Z,46.33
2018-10-19T19:55:42.986Z,39.40
2018-10-19T19:58:12.570Z,41.37
2018-10-19T20:00:42.099Z,38.23
2018-10-19T20:03:11.638Z,35.57
2018-10-19T20:05:41.122Z,36.23
2018-10-19T20:08:10.710Z,38.80
2018-10-19T20:10:40.178Z,47.63
2018-10-19T20:13:09.738Z,39.13
2018-10-19T20:15:39.238Z,49.13
2018-10-19T20:18:08.856Z,37.27
2018-10-19T20:20:38.389Z,41.70
2018-10-19T20:23:08.007Z,38.90
2018-10-19T20:25:37.503Z,43.63
2018-10-19T20:28:07.010Z,45.27
2018-10-19T20:30:36.570Z,44.73
2018-10-19T20:33:06.154Z,38.53
2018-10-19T20:35:35.714Z,47.87
2018-10-19T20:38:05.299Z,47.67
2018-10-19T20:40:34.839Z,50.73
2018-10-19T20:43:04.344Z,47.20
2018-10-19T20:45:33.960Z,42.23
2018-10-19T20:48:03.503Z,40.90
2018-10-19T20:50:33.054Z,49.10
2018-10-19T20:53:02.600Z,44.83
2018-10-19T20:55:32.162Z,50.50
2018-10-19T20:58:01.678Z,48.13
2018-10-19T21:00:31.211Z,45.07
2018-10-19T21:03:00.738Z,40.90
2018-10-19T21:05:30.344Z,44.33
2018-10-19T21:08:00.012Z,43.07
2018-10-19T21:10:29.543Z,48.33
2018-10-19T21:12:59.043Z,45.67
2018-10-19T21:15:28.735Z,41.77
2018-10-19T21:17:58.229Z,44.83
2018-10-19T21:20:27.827Z,42.23
2018-10-19T21:22:57.346Z,45.17
2018-10-19T21:25:26.902Z,43.87
2018-10-19T21:27:56.439Z,44.20
2018-10-19T21:30:25.992Z,42.47
2018-10-19T21:32:55.547Z,46.37
2018-10-19T21:35:25.071Z,45.70
2018-10-19T21:37:54.631Z,42.10
2018-10-19T21:40:24.241Z,42.43
2018-10-19T21:42:53.779Z,44.33
2018-10-19T21:45:23.293Z,46.27
2018-10-19T21:47:52.812Z,46.93
2018-10-19T21:50:23.036Z,52.47
2018-10-19T21:52:53.373Z,41.80
2018-10-19T21:55:22.880Z,45.37
2018-10-19T21:57:52.414Z,48.83
2018-10-19T22:00:21.972Z,44.00
2018-10-19T22:02:51.503Z,51.20
2018-10-19T22:05:21.206Z,44.87
2018-10-19T22:07:50.744Z,44.70
2018-10-19T22:10:20.256Z,49.13
2018-10-19T22:12:49.790Z,50.50
2018-10-19T22:15:19.313Z,49.17
2018-10-19T22:17:48.866Z,54.47
2018-10-19T22:20:18.412Z,49.93
2018-10-19T22:22:47.968Z,54.87
2018-10-19T22:25:17.561Z,61.47
2018-10-19T22:27:47.173Z,59.17
2018-10-19T22:30:16.724Z,57.00
2018-10-19T22:32:46.250Z,55.70
2018-10-19T22:35:15.862Z,57.23
2018-10-19T22:37:45.368Z,62.40
2018-10-19T22:40:14.903Z,58.87
2018-10-19T22:42:44.439Z,53.67
2018-10-19T22:45:14.007Z,58.80
2018-10-19T22:47:43.543Z,50.33
2018-10-19T22:50:13.066Z,58.97
2018-10-19T22:52:42.631Z,55.87
2018-10-19T22:55:12.208Z,54.37
2018-10-19T22:57:41.713Z,61.63
2018-10-19T23:00:11.232Z,57.57
2018-10-19T23:02:40.778Z,56.00
2018-10-19T23:05:10.343Z,56.47
2018-10-19T23:07:39.866Z,49.00
2018-10-19T23:10:09.599Z,50.00
2018-10-19T23:12:39.126Z,57.33
2018-10-19T23:15:08.736Z,49.47
2018-10-19T23:17:38.448Z,53.80
2018-10-19T23:20:08.654Z,49.87
2018-10-19T23:22:38.210Z,53.50
2018-10-19T23:25:08.321Z,57.50
2018-10-19T23:27:37.847Z,52.83
2018-10-19T23:30:07.752Z,55.80
2018-10-19T23:32:37.283Z,60.33
2018-10-19T23:35:08.023Z,52.63
2018-10-19T23:37:37.591Z,58.40
2018-10-19T23:40:07.695Z,53.53
2018-10-19T23:42:37.228Z,48.87
2018-10-19T23:45:07.732Z,59.90
2018-10-19T23:47:37.235Z,52.83
2018-10-19T23:50:07.510Z,52.63
2018-10-19T23:52:37.068Z,52.47
2018-10-19T23:55:07.100Z,60.10
2018-10-19T23:57:36.630Z,59.43
